Terminal Aerodrome Forecast
Issued by NWS

Home | Current Version | Previous Version | Graphics & Text | Print | Product List | Glossary On
Versions: 1 2 3 4 5 6 7 8 9 10 11 12 13 14 15 16 17 18 19 20 21
000
FTUS43 KBIS 180500
TAFJMS
TAF
KJMS 180535Z 1806/1906 13006KT P6SM BKN090
     FM181500 16008KT P6SM OVC012
     FM181800 17007KT P6SM -SN OVC010
     FM190000 17006KT P6SM OVC015=

USA.gov is the U.S. government's official web portal to all federal, state and local government web resources and services.